Time;durP1;ratioP1;P1;durP2;ratioP2;P2;SDS_P1;SDS_P2;PMS_P1;PMS_P2;Temp;Humidity;BMP_temperature;BMP_pressure;BME280_temperature;BME280_humidity;BME280_pressure;Samples;Min_cycle;Max_cycle;Signal;HPM_P1;HPM_P2
2020/12/03 00:01:56;;;;;;;;;;;;;;;23.28;20.77;98515.00;5120091;28;1440;-74
2020/12/03 00:04:21;;;;;;;;;;;;;;;23.27;20.97;98513.41;5120577;28;978;-74
2020/12/03 00:06:50;;;;;;;;;;;;;;;23.65;20.54;98516.50;5120404;28;657;-74
2020/12/03 00:09:16;;;;;;;;;;;;;;;23.88;19.94;98518.31;5136910;28;646;-74
2020/12/03 00:11:43;;;;;;;;;;;;;;;23.97;19.89;98525.38;5134727;28;1546;-74
2020/12/03 00:14:09;;;;;;;;;;;;;;;22.85;21.54;98520.91;5120482;28;929;-74
2020/12/03 00:16:34;;;;;;;;;;;;;;;23.07;21.18;98515.53;5120048;28;1216;-74
2020/12/03 00:19:00;;;;;;;;;;;;;;;23.43;20.90;98517.47;5120167;28;1913;-74
2020/12/03 00:21:29;;;;;;;;;;;;;;;23.84;20.11;98517.63;5102705;28;1558;-75
2020/12/03 00:23:55;;;;;;;;;;;;;;;23.43;20.74;98515.44;5120108;28;1582;-74
2020/12/03 00:26:20;;;;;;;;;;;;;;;23.60;20.82;98519.03;5120534;28;573;-74
2020/12/03 00:28:45;;;;;;;;;;;;;;;23.69;20.48;98516.41;5120064;28;1011;-75
2020/12/03 00:31:11;;;;;;;;;;;;;;;23.74;20.36;98517.91;5120190;28;934;-74
2020/12/03 00:33:36;;;;;;;;;;;;;;;23.35;20.66;98520.50;5123543;28;1472;-75
2020/12/03 00:36:02;;;;;;;;;;;;;;;23.69;20.42;98524.13;5123996;28;633;-75
2020/12/03 00:38:27;;;;;;;;;;;;;;;22.92;21.57;98531.31;5123987;28;1968;-74
2020/12/03 00:40:53;;;;;;;;;;;;;;;22.84;21.53;98525.75;5124003;28;593;-74
2020/12/03 00:43:18;;;;;;;;;;;;;;;22.85;21.37;98524.53;5123246;28;1592;-74
2020/12/03 00:45:46;;;;;;;;;;;;;;;23.24;21.09;98525.66;5123605;28;1491;-74
2020/12/03 00:48:12;;;;;;;;;;;;;;;23.60;20.48;98525.53;5106281;28;1165;-75
2020/12/03 00:50:38;;;;;;;;;;;;;;;23.98;20.13;98519.25;5106379;28;1162;-75
2020/12/03 00:53:04;;;;;;;;;;;;;;;23.99;20.02;98525.75;5123970;28;613;-74
2020/12/03 00:55:39;;;;;;;;;;;;;;;23.54;20.61;98526.53;5105630;28;1523;-74
2020/12/03 00:58:10;;;;;;;;;;;;;;;24.18;19.95;98519.09;5123238;28;1893;-74
2020/12/03 01:00:36;;;;;;;;;;;;;;;23.51;20.68;98516.03;5123209;28;808;-75
2020/12/03 01:03:01;;;;;;;;;;;;;;;23.18;21.24;98515.28;5123673;28;698;-74
2020/12/03 01:05:27;;;;;;;;;;;;;;;23.29;20.96;98513.75;5123154;28;1542;-74
2020/12/03 01:07:52;;;;;;;;;;;;;;;23.14;21.21;98506.84;5124110;28;640;-75
2020/12/03 01:10:21;;;;;;;;;;;;;;;23.57;20.93;98509.38;5123675;28;631;-74
2020/12/03 01:12:46;;;;;;;;;;;;;;;23.59;20.65;98506.09;5123042;28;863;-74
2020/12/03 01:15:12;;;;;;;;;;;;;;;23.36;20.78;98515.59;5122511;28;1610;-74
2020/12/03 01:17:37;;;;;;;;;;;;;;;23.79;20.49;98514.53;5122903;28;1898;-75
2020/12/03 01:20:10;;;;;;;;;;;;;;;23.18;21.28;98507.56;5123265;28;653;-75
2020/12/03 01:22:35;;;;;;;;;;;;;;;23.25;20.90;98504.53;5122577;28;1571;-74
2020/12/03 01:25:01;;;;;;;;;;;;;;;23.44;21.23;98499.19;5123380;28;586;-75
2020/12/03 01:27:26;;;;;;;;;;;;;;;23.37;20.74;98500.19;5122744;28;928;-75
2020/12/03 01:29:52;;;;;;;;;;;;;;;22.73;21.43;98499.69;5122833;28;848;-75
2020/12/03 01:32:17;;;;;;;;;;;;;;;23.38;20.95;98496.91;5122434;28;1510;-75
2020/12/03 01:34:42;;;;;;;;;;;;;;;23.62;20.81;98496.66;5123020;28;1523;-74
2020/12/03 01:37:08;;;;;;;;;;;;;;;23.77;20.33;98503.59;5105399;28;1756;-75
2020/12/03 01:39:33;;;;;;;;;;;;;;;23.59;20.67;98506.09;5122750;28;1901;-75
2020/12/03 01:41:59;;;;;;;;;;;;;;;23.10;21.15;98491.94;5122485;28;1511;-75
2020/12/03 01:44:34;;;;;;;;;;;;;;;23.54;20.75;98489.59;5121608;28;874;-75
2020/12/03 01:47:00;;;;;;;;;;;;;;;23.36;21.05;98485.19;5122656;28;1076;-74
2020/12/03 01:49:27;;;;;;;;;;;;;;;23.57;20.58;98491.53;5122865;28;609;-75
2020/12/03 01:51:54;;;;;;;;;;;;;;;23.28;21.28;98475.25;5105265;28;590;-74
2020/12/03 01:54:20;;;;;;;;;;;;;;;23.68;20.64;98486.41;5122184;28;1507;-74
2020/12/03 01:56:51;;;;;;;;;;;;;;;23.46;21.09;98480.44;5122224;28;1435;-74
2020/12/03 01:59:17;;;;;;;;;;;;;;;23.88;20.17;98484.22;5122008;28;1893;-75
2020/12/03 02:01:42;;;;;;;;;;;;;;;23.65;20.72;98475.94;5122527;28;789;-75
2020/12/03 02:04:08;;;;;;;;;;;;;;;23.78;20.58;98473.94;5138782;27;1334;-75
2020/12/03 02:06:34;;;;;;;;;;;;;;;23.75;20.43;98474.84;5122352;28;656;-74
2020/12/03 02:09:00;;;;;;;;;;;;;;;22.94;21.56;98478.53;5122698;28;567;-75
2020/12/03 02:11:25;;;;;;;;;;;;;;;23.61;20.81;98480.88;5121707;28;1472;-74
2020/12/03 02:14:20;;;;;;;;;;;;;;;23.36;21.14;98476.69;5121794;28;982;-75
2020/12/03 02:16:45;;;;;;;;;;;;;;;23.58;20.62;98478.94;5119706;28;1418;-75
2020/12/03 02:19:18;;;;;;;;;;;;;;;23.45;21.18;98480.91;5122049;28;1970;-74
2020/12/03 02:21:44;;;;;;;;;;;;;;;23.74;20.38;98478.94;5122066;28;614;-74
2020/12/03 02:24:09;;;;;;;;;;;;;;;23.64;20.51;98475.13;5121849;28;614;-74
2020/12/03 02:26:35;;;;;;;;;;;;;;;23.60;20.81;98479.28;5121934;28;926;-75
2020/12/03 02:29:00;;;;;;;;;;;;;;;23.19;21.17;98466.56;5121847;28;931;-75
2020/12/03 02:31:26;;;;;;;;;;;;;;;22.96;21.55;98475.28;5122124;28;868;-74
2020/12/03 02:33:51;;;;;;;;;;;;;;;22.82;21.81;98470.72;5121469;28;1647;-74
2020/12/03 02:36:16;;;;;;;;;;;;;;;23.27;21.26;98467.97;5121939;28;645;-74
2020/12/03 02:38:42;;;;;;;;;;;;;;;23.31;21.02;98473.53;5121522;28;1910;-74
2020/12/03 02:41:08;;;;;;;;;;;;;;;23.30;21.36;98460.59;5121692;28;1042;-74
2020/12/03 02:43:33;;;;;;;;;;;;;;;23.13;21.44;98474.03;5120878;28;1511;-75
2020/12/03 02:45:58;;;;;;;;;;;;;;;23.27;21.15;98473.66;5121751;28;969;-74
2020/12/03 02:48:24;;;;;;;;;;;;;;;23.27;20.96;98470.03;5121511;28;682;-74
2020/12/03 02:50:49;;;;;;;;;;;;;;;23.16;21.40;98472.31;5121706;28;636;-74
2020/12/03 02:53:15;;;;;;;;;;;;;;;23.86;20.55;98468.84;5121184;28;1523;-74
2020/12/03 02:55:41;;;;;;;;;;;;;;;23.53;20.77;98468.13;5120979;28;1475;-75
2020/12/03 02:58:06;;;;;;;;;;;;;;;24.15;20.34;98471.66;5121188;28;1980;-75
2020/12/03 03:00:31;;;;;;;;;;;;;;;23.55;20.99;98474.13;5121277;28;840;-75
2020/12/03 03:02:57;;;;;;;;;;;;;;;23.36;20.95;98476.69;5121700;28;594;-75
2020/12/03 03:05:22;;;;;;;;;;;;;;;23.89;20.65;98474.44;5120964;28;1507;-75
2020/12/03 03:07:48;;;;;;;;;;;;;;;23.46;21.02;98479.66;5121272;28;1626;-74
2020/12/03 03:10:14;;;;;;;;;;;;;;;23.40;21.19;98470.88;5120759;28;837;-75
2020/12/03 03:12:39;;;;;;;;;;;;;;;22.84;21.79;98469.00;5120906;28;877;-75
2020/12/03 03:15:05;;;;;;;;;;;;;;;23.45;21.03;98466.72;5120752;28;1539;-75
2020/12/03 03:17:30;;;;;;;;;;;;;;;23.28;21.30;98475.25;5120802;28;1905;-75
2020/12/03 03:19:56;;;;;;;;;;;;;;;24.09;20.54;98479.16;5121003;28;566;-75
2020/12/03 03:22:21;;;;;;;;;;;;;;;23.61;20.80;98472.34;5121021;28;668;-75
2020/12/03 03:24:47;;;;;;;;;;;;;;;23.49;20.85;98473.09;5120564;28;1476;-74
2020/12/03 03:27:12;;;;;;;;;;;;;;;23.85;20.89;98478.63;5120347;28;1593;-75
2020/12/03 03:29:37;;;;;;;;;;;;;;;23.88;20.72;98480.56;5120628;28;1395;-74
2020/12/03 03:32:03;;;;;;;;;;;;;;;23.32;21.09;98473.13;5121217;28;590;-75
2020/12/03 03:34:28;;;;;;;;;;;;;;;23.70;20.93;98466.84;5120884;28;574;-75
2020/12/03 03:36:54;;;;;;;;;;;;;;;23.48;21.03;98477.19;5120165;28;1538;-74
2020/12/03 03:39:20;;;;;;;;;;;;;;;23.87;20.65;98471.22;5120025;28;1977;-75
2020/12/03 03:41:46;;;;;;;;;;;;;;;23.45;21.15;98469.53;5120768;28;951;-74
2020/12/03 03:44:11;;;;;;;;;;;;;;;23.79;20.72;98475.53;5120689;28;849;-75
2020/12/03 03:46:37;;;;;;;;;;;;;;;23.07;21.66;98458.78;5120397;28;1530;-74
2020/12/03 03:49:02;;;;;;;;;;;;;;;23.86;20.55;98469.63;5120429;28;1566;-75
2020/12/03 03:51:28;;;;;;;;;;;;;;;23.71;20.62;98468.44;5120908;28;652;-74
2020/12/03 03:53:53;;;;;;;;;;;;;;;22.95;21.84;98467.97;5120462;28;851;-74
2020/12/03 03:56:19;;;;;;;;;;;;;;;23.16;21.60;98470.31;5120301;28;851;-75
2020/12/03 03:58:44;;;;;;;;;;;;;;;23.32;21.27;98464.59;5119890;28;1909;-74
2020/12/03 04:01:10;;;;;;;;;;;;;;;23.74;21.04;98466.75;5120840;28;697;-74
2020/12/03 04:03:35;;;;;;;;;;;;;;;23.74;20.75;98456.19;5120926;28;648;-74
2020/12/03 04:06:01;;;;;;;;;;;;;;;23.53;21.00;98451.88;5120381;28;1506;-75
2020/12/03 04:08:26;;;;;;;;;;;;;;;23.25;21.38;98450.56;5123860;28;1586;-74
2020/12/03 04:10:52;;;;;;;;;;;;;;;23.91;20.87;98457.72;5124245;28;816;-74
2020/12/03 04:13:18;;;;;;;;;;;;;;;23.89;20.90;98480.13;5124597;28;823;-74
2020/12/03 04:15:46;;;;;;;;;;;;;;;23.67;21.06;98472.63;5124252;28;1521;-74
2020/12/03 04:18:12;;;;;;;;;;;;;;;23.87;20.79;98461.91;5124330;28;1972;-74
2020/12/03 04:20:37;;;;;;;;;;;;;;;23.71;20.96;98467.66;5124707;28;709;-74
2020/12/03 04:23:03;;;;;;;;;;;;;;;23.89;20.77;98479.31;5124267;28;919;-75
2020/12/03 04:25:28;;;;;;;;;;;;;;;23.64;21.14;98468.66;5124009;28;857;-74
2020/12/03 04:27:54;;;;;;;;;;;;;;;22.71;22.20;98476.63;5124175;28;789;-74
2020/12/03 04:30:19;;;;;;;;;;;;;;;23.32;21.35;98478.81;5124120;28;657;-74
2020/12/03 04:32:45;;;;;;;;;;;;;;;23.64;21.11;98480.03;5124099;28;666;-74
2020/12/03 04:35:11;;;;;;;;;;;;;;;23.38;21.25;98479.84;5124143;28;650;-74
2020/12/03 04:37:36;;;;;;;;;;;;;;;23.30;21.64;98472.75;5140355;27;1973;-73
2020/12/03 04:40:03;;;;;;;;;;;;;;;23.96;20.76;98484.78;5123917;28;826;-74
2020/12/03 04:42:32;;;;;;;;;;;;;;;23.77;21.09;98480.84;5124199;28;1024;-75
2020/12/03 04:44:59;;;;;;;;;;;;;;;23.23;21.69;98477.84;5124175;28;658;-75
2020/12/03 04:47:39;;;;;;;;;;;;;;;23.23;21.73;98470.13;5140289;27;689;-74
2020/12/03 04:50:15;;;;;;;;;;;;;;;23.78;21.01;98468.25;5140494;27;667;-74
2020/12/03 04:52:43;;;;;;;;;;;;;;;23.60;20.99;98468.72;5139873;27;851;-75
2020/12/03 04:55:08;;;;;;;;;;;;;;;23.80;20.87;98482.00;5123684;28;912;-75
2020/12/03 04:57:36;;;;;;;;;;;;;;;24.04;20.50;98491.09;5123655;28;1972;-74
2020/12/03 05:00:09;;;;;;;;;;;;;;;23.89;20.86;98485.00;5140142;27;602;-75
2020/12/03 05:02:39;;;;;;;;;;;;;;;23.77;20.87;98466.66;5140022;27;1233;-75
2020/12/03 05:05:15;;;;;;;;;;;;;;;23.23;21.49;98472.94;5139866;27;669;-75
2020/12/03 05:07:42;;;;;;;;;;;;;;;23.53;21.48;98485.16;5139609;27;929;-75
2020/12/03 05:10:07;;;;;;;;;;;;;;;23.75;21.08;98477.69;5139478;27;879;-75
2020/12/03 05:12:37;;;;;;;;;;;;;;;23.40;21.38;98483.03;5123538;28;954;-75
2020/12/03 05:15:06;;;;;;;;;;;;;;;23.08;22.16;98475.34;5139980;27;661;-74
2020/12/03 05:17:50;;;;;;;;;;;;;;;23.90;21.14;98470.34;5138785;27;1901;-75
2020/12/03 05:20:19;;;;;;;;;;;;;;;23.05;21.93;98467.75;5122975;28;657;-74
2020/12/03 05:22:46;;;;;;;;;;;;;;;23.88;20.94;98452.94;5122847;28;969;-74
2020/12/03 05:25:15;;;;;;;;;;;;;;;22.70;22.44;98452.34;5139513;27;825;-74
2020/12/03 05:27:41;;;;;;;;;;;;;;;22.96;22.37;98452.56;5123281;28;894;-75
2020/12/03 05:30:07;;;;;;;;;;;;;;;23.56;21.55;98447.31;5123351;28;641;-75
2020/12/03 05:32:33;;;;;;;;;;;;;;;23.33;21.58;98442.69;5139748;27;622;-74
2020/12/03 05:34:58;;;;;;;;;;;;;;;23.11;21.59;98448.94;5139339;27;661;-75
2020/12/03 05:37:25;;;;;;;;;;;;;;;23.49;21.30;98439.81;5138988;27;1239;-75
2020/12/03 05:39:54;;;;;;;;;;;;;;;23.98;20.95;98436.81;5122925;28;834;-75
2020/12/03 05:42:27;;;;;;;;;;;;;;;23.85;21.19;98445.31;5123044;28;837;-75
2020/12/03 05:44:56;;;;;;;;;;;;;;;23.82;21.07;98451.09;5123156;28;624;-75
2020/12/03 05:47:28;;;;;;;;;;;;;;;23.87;20.99;98476.91;5123244;28;650;-75
2020/12/03 05:49:55;;;;;;;;;;;;;;;23.70;21.45;98475.38;5122616;28;632;-75
2020/12/03 05:52:22;;;;;;;;;;;;;;;23.75;21.00;98474.03;5122528;28;820;-74
2020/12/03 05:55:06;;;;;;;;;;;;;;;23.52;21.47;98472.19;5122218;28;922;-75
2020/12/03 05:57:35;;;;;;;;;;;;;;;23.71;20.97;98482.66;5139062;27;1909;-75
2020/12/03 06:00:27;;;;;;;;;;;;;;;23.24;21.75;98470.91;5122361;28;561;-74
2020/12/03 06:02:55;;;;;;;;;;;;;;;23.48;21.73;98483.66;5121144;28;1726;-75
2020/12/03 06:05:30;;;;;;;;;;;;;;;22.60;22.70;98488.22;5122583;28;665;-75
2020/12/03 06:08:06;;;;;;;;;;;;;;;23.62;21.46;98476.78;5122000;28;994;-74
2020/12/03 06:10:34;;;;;;;;;;;;;;;23.70;21.25;98488.78;5138267;27;924;-75
2020/12/03 06:13:11;;;;;;;;;;;;;;;23.90;21.13;98484.56;5122416;28;634;-74
2020/12/03 06:15:36;;;;;;;;;;;;;;;23.90;21.13;98487.41;5138425;27;1054;-75
2020/12/03 06:18:02;;;;;;;;;;;;;;;23.35;21.73;98492.09;5122414;28;1977;-75
2020/12/03 06:20:46;;;;;;;;;;;;;;;24.08;21.17;98486.88;5122935;28;554;-75
2020/12/03 06:23:30;;;;;;;;;;;;;;;23.71;21.57;98491.16;5121720;28;868;-75
2020/12/03 06:26:07;;;;;;;;;;;;;;;23.65;21.52;98488.09;5121538;28;999;-75
2020/12/03 06:28:45;;;;;;;;;;;;;;;23.72;21.38;98487.09;5138519;27;625;-75
2020/12/03 06:31:17;;;;;;;;;;;;;;;24.18;20.90;98491.44;5121874;28;673;-75
2020/12/03 06:33:47;;;;;;;;;;;;;;;23.64;21.57;98491.38;5121835;28;724;-75
2020/12/03 06:36:16;;;;;;;;;;;;;;;23.85;21.11;98490.78;5138200;27;671;-75
2020/12/03 06:38:41;;;;;;;;;;;;;;;22.81;22.54;98481.25;5121271;28;1893;-75
2020/12/03 06:41:16;;;;;;;;;;;;;;;23.83;21.50;98483.97;5121290;28;888;-75
2020/12/03 06:43:51;;;;;;;;;;;;;;;23.05;22.02;98483.94;5121495;28;918;-75
2020/12/03 06:46:41;;;;;;;;;;;;;;;23.01;22.26;98467.03;5121501;28;572;-75
2020/12/03 06:49:25;;;;;;;;;;;;;;;24.01;20.97;98469.25;5137934;27;921;-75
2020/12/03 06:52:20;;;;;;;;;;;;;;;23.94;21.13;98480.81;5121385;28;649;-75
2020/12/03 06:55:01;;;;;;;;;;;;;;;23.70;21.24;98478.22;5257756;22;3731;-73
2020/12/03 06:58:25;;;;;;;;;;;;;;;24.49;20.66;98482.44;5117161;22;3650;-73
2020/12/03 07:01:18;;;;;;;;;;;;;;;24.20;21.03;98471.13;4999867;28;1112;-72
2020/12/03 07:04:09;;;;;;;;;;;;;;;24.17;21.05;98472.00;4999746;28;957;-74
2020/12/03 07:06:59;;;;;;;;;;;;;;;24.11;21.13;98470.97;5073243;28;920;-73
2020/12/03 07:09:33;;;;;;;;;;;;;;;23.90;21.46;98461.81;5080698;28;673;-74
2020/12/03 07:12:19;;;;;;;;;;;;;;;24.30;20.82;98458.63;5080311;28;574;-73
2020/12/03 07:15:10;;;;;;;;;;;;;;;23.81;21.54;98467.34;5066485;28;1051;-73
2020/12/03 07:18:01;;;;;;;;;;;;;;;24.01;21.13;98463.56;5094740;28;1902;-73
2020/12/03 07:20:42;;;;;;;;;;;;;;;24.56;20.52;98470.06;5100571;28;636;-71
2020/12/03 07:23:33;;;;;;;;;;;;;;;24.01;21.09;98481.41;5094015;28;1054;-71
2020/12/03 07:26:10;;;;;;;;;;;;;;;24.39;20.75;98487.19;5060147;28;641;-74
2020/12/03 07:28:49;;;;;;;;;;;;;;;23.47;21.67;98484.13;5043931;28;642;-73
2020/12/03 07:31:48;;;;;;;;;;;;;;;23.79;21.42;98486.91;5043591;28;827;-73
2020/12/03 07:34:25;;;;;;;;;;;;;;;24.34;21.06;98490.56;5059437;28;905;-73
2020/12/03 07:37:06;;;;;;;;;;;;;;;23.78;21.88;98488.16;5060112;28;666;-73
2020/12/03 07:39:45;;;;;;;;;;;;;;;23.11;22.48;98493.53;5059984;28;1910;-73
2020/12/03 07:42:19;;;;;;;;;;;;;;;24.06;21.29;98489.38;5231297;22;3692;-73
2020/12/03 07:45:05;;;;;;;;;;;;;;;24.32;20.95;98495.13;5101514;22;3582;-73
2020/12/03 07:47:37;;;;;;;;;;;;;;;24.73;20.34;98496.34;5079930;28;936;-74
2020/12/03 07:50:04;;;;;;;;;;;;;;;24.16;21.04;98505.34;5079905;28;947;-73
2020/12/03 07:52:36;;;;;;;;;;;;;;;23.76;21.58;98507.69;5063883;28;697;-73
2020/12/03 07:55:19;;;;;;;;;;;;;;;23.73;21.85;98514.28;5079923;28;688;-73
2020/12/03 07:57:52;;;;;;;;;;;;;;;23.64;21.89;98508.44;5079964;28;1973;-74
2020/12/03 08:00:27;;;;;;;;;;;;;;;24.30;21.10;98509.03;5080021;28;639;-73
2020/12/03 08:02:59;;;;;;;;;;;;;;;23.50;21.92;98497.41;5079759;28;990;-73
2020/12/03 08:05:40;;;;;;;;;;;;;;;24.12;21.43;98498.16;5079571;28;821;-73
2020/12/03 08:08:21;;;;;;;;;;;;;;;24.06;21.61;98497.13;5079821;28;652;-73
2020/12/03 08:10:54;;;;;;;;;;;;;;;23.81;21.48;98495.75;5079806;28;807;-72
2020/12/03 08:13:28;;;;;;;;;;;;;;;24.39;21.18;98492.88;5079801;28;661;-71
2020/12/03 08:16:03;;;;;;;;;;;;;;;24.50;20.69;98501.13;5079746;28;617;-73
2020/12/03 08:18:39;;;;;;;;;;;;;;;23.50;22.17;98508.78;5079416;28;1902;-72
2020/12/03 08:21:12;;;;;;;;;;;;;;;23.67;21.91;98513.19;5062914;28;991;-73
2020/12/03 08:23:38;;;;;;;;;;;;;;;24.66;20.82;98508.75;5079980;28;688;-73
2020/12/03 08:26:09;;;;;;;;;;;;;;;24.13;21.53;98506.22;5079734;28;732;-72
2020/12/03 08:28:41;;;;;;;;;;;;;;;24.00;21.51;98504.59;5080019;28;640;-73
2020/12/03 08:31:13;;;;;;;;;;;;;;;24.24;21.04;98500.22;5079645;28;633;-74
2020/12/03 08:33:50;;;;;;;;;;;;;;;23.68;22.04;98503.44;5079726;28;1024;-73
2020/12/03 08:36:22;;;;;;;;;;;;;;;23.85;21.80;98507.84;5079329;28;904;-73
2020/12/03 08:38:55;;;;;;;;;;;;;;;24.12;21.37;98498.16;5063390;28;1968;-73
2020/12/03 08:41:28;;;;;;;;;;;;;;;23.38;22.29;98491.22;5079601;28;678;-73
2020/12/03 08:44:03;;;;;;;;;;;;;;;24.39;21.00;98487.19;5079435;28;689;-73
2020/12/03 08:46:49;;;;;;;;;;;;;;;23.98;21.67;98493.66;5077722;28;1056;-73
2020/12/03 08:49:24;;;;;;;;;;;;;;;23.41;22.01;98475.31;5079088;28;899;-73
2020/12/03 08:51:50;;;;;;;;;;;;;;;23.31;22.54;98463.00;5079583;28;689;-73
2020/12/03 08:54:30;;;;;;;;;;;;;;;24.58;20.74;98450.47;5066751;28;732;-73
2020/12/03 08:57:03;;;;;;;;;;;;;;;23.57;22.11;98452.59;5083066;28;697;-74
2020/12/03 08:59:36;;;;;;;;;;;;;;;23.62;22.18;98460.56;5082970;28;1985;-74
2020/12/03 09:02:10;;;;;;;;;;;;;;;23.72;22.06;98455.03;5097017;28;1122;-72
2020/12/03 09:04:46;;;;;;;;;;;;;;;24.12;21.52;98452.66;5092889;28;1070;-72
2020/12/03 09:07:19;;;;;;;;;;;;;;;23.85;21.92;98455.88;5066423;28;642;-73
2020/12/03 09:09:51;;;;;;;;;;;;;;;24.03;21.50;98461.84;5066415;28;690;-74
2020/12/03 09:12:28;;;;;;;;;;;;;;;24.25;21.29;98467.72;5065582;28;1171;-74
2020/12/03 09:15:02;;;;;;;;;;;;;;;23.88;21.75;98469.19;5066310;28;622;-74
2020/12/03 09:17:35;;;;;;;;;;;;;;;23.14;22.57;98470.72;5066169;28;1902;-74
2020/12/03 09:20:08;;;;;;;;;;;;;;;24.13;21.72;98477.00;5065899;28;879;-72
2020/12/03 09:22:41;;;;;;;;;;;;;;;23.72;22.01;98470.03;5082692;28;607;-71
2020/12/03 09:25:13;;;;;;;;;;;;;;;24.37;21.20;98469.00;5082539;28;685;-73
2020/12/03 09:27:42;;;;;;;;;;;;;;;23.45;22.34;98455.34;5082429;28;664;-74
2020/12/03 09:30:22;;;;;;;;;;;;;;;22.91;22.83;98458.78;5083525;28;1201;-74
2020/12/03 09:32:55;;;;;;;;;;;;;;;22.54;23.51;98455.16;5071393;28;1090;-72
2020/12/03 09:35:27;;;;;;;;;;;;;;;22.53;23.57;98442.22;5083934;28;1181;-73
2020/12/03 09:38:00;;;;;;;;;;;;;;;22.19;24.04;98439.75;5082125;28;1909;-74
2020/12/03 09:40:36;;;;;;;;;;;;;;;22.31;24.14;98436.22;5065891;28;657;-74
2020/12/03 09:43:07;;;;;;;;;;;;;;;22.30;23.98;98435.44;5066224;28;583;-74
2020/12/03 09:45:42;;;;;;;;;;;;;;;22.30;23.85;98434.66;5061338;28;1104;-76
2020/12/03 09:48:17;;;;;;;;;;;;;;;22.18;24.14;98424.78;5062345;28;910;-76
2020/12/03 09:50:49;;;;;;;;;;;;;;;22.12;24.17;98432.19;5061602;28;954;-73
2020/12/03 09:53:21;;;;;;;;;;;;;;;22.06;24.45;98440.38;5045698;28;649;-74
2020/12/03 09:55:53;;;;;;;;;;;;;;;21.87;24.75;98434.75;5061792;28;618;-73
2020/12/03 09:58:25;;;;;;;;;;;;;;;21.99;24.54;98428.41;5045743;28;1902;-74
2020/12/03 10:01:00;;;;;;;;;;;;;;;21.87;24.59;98423.41;5061401;28;1051;-73
2020/12/03 10:03:34;;;;;;;;;;;;;;;21.74;24.77;98426.91;5045365;28;871;-73
2020/12/03 10:06:25;;;;;;;;;;;;;;;21.77;24.83;98425.25;5061285;28;598;-73
2020/12/03 10:09:16;;;;;;;;;;;;;;;21.65;24.76;98423.84;5061568;28;652;-73
2020/12/03 10:11:55;;;;;;;;;;;;;;;21.65;24.92;98406.84;5061821;28;681;-73
2020/12/03 10:14:26;;;;;;;;;;;;;;;21.53;24.83;98416.78;5061486;28;618;-73
2020/12/03 10:16:58;;;;;;;;;;;;;;;21.65;24.79;98400.38;5061376;28;898;-72
2020/12/03 10:19:29;;;;;;;;;;;;;;;21.58;25.07;98399.31;5060914;28;1971;-73
2020/12/03 10:22:17;;;;;;;;;;;;;;;21.59;24.98;98400.09;5045148;28;652;-72
2020/12/03 10:24:51;;;;;;;;;;;;;;;21.95;24.28;98390.84;5061235;28;646;-73
2020/12/03 10:27:25;;;;;;;;;;;;;;;22.45;23.82;98401.09;5044901;28;646;-74
2020/12/03 10:30:01;;;;;;;;;;;;;;;22.76;23.32;98396.69;5061146;28;614;-73
2020/12/03 10:32:36;;;;;;;;;;;;;;;21.79;24.48;98400.88;5044579;28;1078;-74
2020/12/03 10:35:08;;;;;;;;;;;;;;;21.75;24.37;98400.16;5044906;28;888;-76
2020/12/03 10:37:45;;;;;;;;;;;;;;;21.70;24.72;98403.50;5061302;28;1965;-75
2020/12/03 10:40:18;;;;;;;;;;;;;;;21.59;24.76;98397.25;5044743;28;859;-75
2020/12/03 10:42:52;;;;;;;;;;;;;;;21.41;24.96;98403.28;5044961;28;678;-74
2020/12/03 10:45:23;;;;;;;;;;;;;;;21.43;25.05;98394.34;5044492;28;1050;-73
2020/12/03 10:48:12;;;;;;;;;;;;;;;21.22;25.35;98399.16;5060604;28;850;-74
2020/12/03 10:50:46;;;;;;;;;;;;;;;22.44;23.81;98393.84;5060503;28;827;-73
2020/12/03 10:53:22;;;;;;;;;;;;;;;22.55;23.54;98388.69;5060855;28;647;-73
2020/12/03 10:55:58;;;;;;;;;;;;;;;22.35;23.84;98381.06;5060790;28;708;-73
2020/12/03 10:58:32;;;;;;;;;;;;;;;21.52;25.03;98369.09;5060698;28;1910;-73
2020/12/03 11:01:07;;;;;;;;;;;;;;;21.31;25.25;98385.28;5060451;28;982;-73
2020/12/03 11:03:39;;;;;;;;;;;;;;;21.65;24.89;98375.69;5060655;28;942;-73
2020/12/03 11:06:14;;;;;;;;;;;;;;;22.23;24.20;98373.25;5044330;28;701;-74
2020/12/03 11:08:45;;;;;;;;;;;;;;;22.57;23.38;98374.88;5060570;28;665;-74
2020/12/03 11:11:17;;;;;;;;;;;;;;;22.68;23.33;98364.03;5044439;28;689;-73
2020/12/03 11:13:50;;;;;;;;;;;;;;;21.61;24.77;98360.84;5044144;28;665;-73
2020/12/03 11:16:23;;;;;;;;;;;;;;;21.47;24.78;98361.91;5042783;28;983;-73
2020/12/03 11:18:54;;;;;;;;;;;;;;;21.52;25.11;98352.91;5059938;28;1902;-73
2020/12/03 11:21:24;;;;;;;;;;;;;;;22.34;23.76;98356.78;5042891;28;881;-73
2020/12/03 11:24:05;;;;;;;;;;;;;;;22.52;23.54;98355.53;5060235;28;622;-74
2020/12/03 11:26:37;;;;;;;;;;;;;;;22.54;23.64;98353.06;5060175;28;614;-73
2020/12/03 11:29:12;;;;;;;;;;;;;;;21.92;24.33;98346.41;5043855;28;610;-73
2020/12/03 11:31:44;;;;;;;;;;;;;;;21.51;24.70;98351.31;5059840;28;829;-73
2020/12/03 11:34:15;;;;;;;;;;;;;;;22.05;24.26;98333.94;5059791;28;916;-73
2020/12/03 11:36:47;;;;;;;;;;;;;;;22.50;23.61;98346.69;5060060;28;670;-73
2020/12/03 11:39:19;;;;;;;;;;;;;;;22.85;23.26;98328.75;5043644;28;1985;-74
2020/12/03 11:42:10;;;;;;;;;;;;;;;22.00;24.07;98330.84;5043683;28;1276;-73
2020/12/03 11:48:05;;;;;;;;;;;;;;;21.47;25.17;98315.81;5060371;28;990;-72
2020/12/03 11:50:35;;;;;;;;;;;;;;;22.18;24.19;98313.47;5059656;28;948;-74
2020/12/03 11:53:07;;;;;;;;;;;;;;;22.52;23.68;98310.16;5060246;28;657;-73
2020/12/03 11:55:39;;;;;;;;;;;;;;;22.73;23.48;98309.59;5060070;28;614;-73
2020/12/03 11:58:10;;;;;;;;;;;;;;;22.80;23.24;98309.44;5059894;28;1910;-73
2020/12/03 12:00:44;;;;;;;;;;;;;;;22.27;24.12;98305.13;5059990;28;665;-73
2020/12/03 12:03:16;;;;;;;;;;;;;;;21.72;24.71;98310.41;5059942;28;658;-73
2020/12/03 12:05:51;;;;;;;;;;;;;;;21.65;24.73;98309.75;5059637;28;939;-73
2020/12/03 12:08:47;;;;;;;;;;;;;;;22.12;24.50;98307.50;5059425;28;887;-74
2020/12/03 12:11:31;;;;;;;;;;;;;;;22.64;23.61;98303.78;5059741;28;630;-73
2020/12/03 12:14:10;;;;;;;;;;;;;;;22.65;23.35;98313.91;5057987;28;697;-73
2020/12/03 12:16:42;;;;;;;;;;;;;;;21.61;24.93;98298.53;5060055;28;642;-73
2020/12/03 12:19:15;;;;;;;;;;;;;;;21.40;25.06;98311.13;5059658;28;1898;-73
2020/12/03 12:21:48;;;;;;;;;;;;;;;21.73;25.02;98299.88;5059435;28;936;-73
2020/12/03 12:24:19;;;;;;;;;;;;;;;22.21;24.25;98306.88;5059404;28;822;-73
2020/12/03 12:26:45;;;;;;;;;;;;;;;22.31;23.91;98300.97;5059605;28;653;-74
2020/12/03 12:29:17;;;;;;;;;;;;;;;22.64;23.64;98295.28;5063221;28;598;-73
2020/12/03 12:31:48;;;;;;;;;;;;;;;22.58;23.70;98292.16;5063390;28;733;-73
2020/12/03 12:34:21;;;;;;;;;;;;;;;21.79;24.55;98298.91;5063329;28;686;-73
2020/12/03 12:36:53;;;;;;;;;;;;;;;21.25;25.41;98292.81;5062972;28;884;-73
2020/12/03 12:39:24;;;;;;;;;;;;;;;22.06;24.50;98297.91;5063066;28;1975;-73
2020/12/03 12:41:57;;;;;;;;;;;;;;;22.60;23.67;98300.25;5063328;28;599;-73
2020/12/03 12:44:29;;;;;;;;;;;;;;;22.65;23.51;98291.19;5063294;28;661;-73
2020/12/03 12:47:07;;;;;;;;;;;;;;;22.69;23.62;98296.75;5063912;28;1127;-73
2020/12/03 12:49:40;;;;;;;;;;;;;;;21.81;24.67;98299.28;5063148;28;706;-73
2020/12/03 12:52:11;;;;;;;;;;;;;;;21.89;24.67;98294.25;5062830;28;1067;-72
2020/12/03 12:54:46;;;;;;;;;;;;;;;21.62;24.99;98288.81;5062785;28;872;-72
2020/12/03 12:57:18;;;;;;;;;;;;;;;21.89;24.84;98296.28;5063057;28;666;-73
2020/12/03 12:59:43;;;;;;;;;;;;;;;22.31;24.13;98295.28;5062713;28;1980;-74
2020/12/03 13:02:15;;;;;;;;;;;;;;;22.72;23.48;98296.69;5062827;28;668;-73
2020/12/03 13:04:47;;;;;;;;;;;;;;;22.48;23.66;98289.59;5062797;28;678;-73
2020/12/03 13:07:19;;;;;;;;;;;;;;;21.78;24.60;98276.72;5062423;28;904;-74
2020/12/03 13:09:51;;;;;;;;;;;;;;;21.72;24.79;98278.47;5062286;28;895;-73
2020/12/03 13:12:23;;;;;;;;;;;;;;;21.82;24.99;98275.41;5062691;28;614;-73
2020/12/03 13:14:55;;;;;;;;;;;;;;;22.21;24.33;98279.34;5062642;28;627;-74
2020/12/03 13:17:27;;;;;;;;;;;;;;;22.60;23.84;98272.69;5062695;28;650;-73
2020/12/03 13:19:59;;;;;;;;;;;;;;;22.51;23.71;98274.56;5062447;28;1902;-73
2020/12/03 13:22:31;;;;;;;;;;;;;;;21.74;24.82;98278.81;5062303;28;937;-74
2020/12/03 13:25:03;;;;;;;;;;;;;;;21.38;25.29;98285.25;5062156;28;821;-73
2020/12/03 13:27:36;;;;;;;;;;;;;;;21.99;24.71;98266.91;5062322;28;646;-73
2020/12/03 13:30:10;;;;;;;;;;;;;;;22.21;24.11;98275.72;5062288;28;645;-73
2020/12/03 13:32:43;;;;;;;;;;;;;;;22.57;23.66;98269.94;5062309;28;661;-73